Latest Weather Observations for Ngukurr AWS

IDD60801

Issued at 1:01 pm CST Wednesday 22 February 2017 (issued every 30 minutes, with the page automatically refreshed every 10 minutes)

About weather observations | Map of weather stations | Latest weather observations for NT | Other Formats
Station Details ID: 014299 Name: NGUKURR AIRPORT Lat: -14.72 Lon: 134.75 Height: 14.46 m
Data from the previous 72 hours. | See also: Recent months at Ngukurr AWS
Date/Time
CST
Temp
°C
App
Temp
°C
Dew
Point
°C
Rel
Hum
%
Delta-T
°C
Wind Press
QNH
hPa
Press
MSL
hPa
Rain since
9am
mm
Dir  Spd
km/h
Gust
km/h
Spd
kts
Gust
kts
22/01:00pm 33.6 35.9 21.4 48 8.3 WSW 11 20 6 11 1008.0 1007.9 0.0
22/12:30pm 33.4 36.5 22.8 53 7.3 WSW 11 17 6 9 1008.6 1008.5 0.0
22/12:00pm 32.7 35.3 21.9 53 7.4 SSW 11 20 6 11 1008.9 1008.8 0.0
22/11:30am 32.8 36.2 22.0 53 7.4 SW 7 13 4 7 1009.4 1009.3 0.0
22/11:00am 32.2 36.3 22.3 56 6.8 WSW 4 7 2 4 1009.8 1009.7 0.0
22/10:30am 31.6 35.2 22.3 57 6.3 SW 7 13 4 7 1010.0 1009.9 0.0
22/10:00am 31.1 34.6 21.9 58 6.2 SSW 6 9 3 5 1010.1 1010.0 0.0
22/09:30am 30.5 34.0 21.9 60 5.8 S 6 9 3 5 1010.3 1010.2 0.0
22/09:00am 29.9 34.2 22.6 65 5.0 S 4 7 2 4 1010.4 1010.3 0.0
22/08:30am 29.1 33.9 22.8 69 4.3 SE 2 4 1 2 1010.3 1010.2 0.0
22/08:00am 27.8 33.5 23.8 79 2.8 CALM 0 4 0 2 1010.2 1010.1 0.0
22/07:30am 26.1 33.1 25.8 98 0.2 CALM 0 0 0 0 1009.9 1009.8 0.0
22/07:00am 24.6 30.7 24.4 99 0.1 CALM 0 0 0 0 1009.5 1009.4 0.0
22/06:30am 24.1 29.8 23.8 98 0.2 CALM 0 0 0 0 1009.1 1009.0 0.0
22/06:00am 24.4 30.3 24.1 98 0.2 CALM 0 0 0 0 1009.0 1008.9 0.0
22/05:30am 24.3 30.1 24.0 98 0.2 CALM 0 0 0 0 1008.6 1008.5 0.0
22/05:00am 24.7 30.8 24.4 98 0.2 CALM 0 0 0 0 1008.5 1008.4 0.0
22/04:30am 24.9 30.7 24.6 98 0.2 NW 2 6 1 3 1008.1 1008.0 0.0
22/04:00am 24.6 30.6 24.3 98 0.2 CALM 0 0 0 0 1007.7 1007.6 0.0
22/03:30am 24.7 30.8 24.4 98 0.2 CALM 0 0 0 0 1007.6 1007.5 0.0
22/03:00am 25.0 31.3 24.7 98 0.2 CALM 0 0 0 0 1007.5 1007.4 0.0
22/02:30am 25.1 31.4 24.8 98 0.2 CALM 0 0 0 0 1007.6 1007.5 0.0
22/02:00am 25.4 31.9 25.1 98 0.2 CALM 0 0 0 0 1007.7 1007.6 0.0
22/01:30am 25.6 31.4 25.1 97 0.3 SSW 4 4 2 2 1007.9 1007.8 0.0
22/01:00am 26.0 32.1 25.1 95 0.6 NW 2 6 1 3 1008.2 1008.1 0.0
22/12:30am 26.0 31.7 25.0 94 0.7 NW 4 6 2 3 1008.6 1008.5 0.0
22/12:00am 26.1 31.7 24.9 93 0.8 SSW 4 4 2 2 1008.9 1008.8 0.0
 
Date/Time
CST
Temp
°C
App
Temp
°C
Dew
Point
°C
Rel
Hum
%
Delta-T
°C
Wind Press
QNH
hPa
Press
MSL
hPa
Rain since
9am
mm
Dir  Spd
km/h
Gust
km/h
Spd
kts
Gust
kts
21/11:30pm 26.9 32.8 25.3 91 1.1 SSE 4 6 2 3 1009.3 1009.2 0.0
21/11:00pm 27.5 35.0 26.6 95 0.6 CALM 0 0 0 0 1009.6 1009.5 0.0
21/10:30pm 27.6 35.2 26.7 95 0.6 CALM 0 0 0 0 1009.6 1009.5 0.0
21/10:00pm 27.7 34.9 26.1 91 1.1 CALM 0 0 0 0 1009.5 1009.4 0.0
21/09:30pm 27.7 34.5 25.5 88 1.5 CALM 0 0 0 0 1009.3 1009.2 0.0
21/09:00pm 27.9 34.0 24.5 82 2.4 CALM 0 0 0 0 1009.0 1008.9 0.0
21/08:30pm 28.1 33.3 23.5 76 3.2 SE 2 4 1 2 1009.0 1008.9 0.0
21/08:00pm 28.0 33.8 24.0 79 2.8 CALM 0 0 0 0 1008.8 1008.7 0.0
21/07:30pm 28.5 33.2 22.7 71 3.9 S 2 6 1 3 1008.7 1008.6 0.0
21/07:00pm 29.0 32.3 21.5 64 5.0 SSE 6 9 3 5 1008.5 1008.4 0.0
21/06:30pm 29.8 35.2 23.3 68 4.5 CALM 0 2 0 1 1008.0 1007.9 0.0
21/06:00pm 30.2 34.2 22.1 62 5.5 WNW 4 6 2 3 1007.7 1007.6 0.0
21/05:30pm 30.7 33.7 21.2 57 6.4 WSW 7 15 4 8 1007.3 1007.2 0.0
21/05:00pm 31.4 36.0 23.2 61 5.7 WSW 4 6 2 3 1007.0 1006.9 0.0
21/04:30pm 31.5 35.4 21.9 56 6.5 SW 4 6 2 3 1006.8 1006.7 0.0
21/04:00pm 31.5 34.5 21.9 56 6.5 SW 9 13 5 7 1006.8 1006.7 0.0
21/03:30pm 31.7 35.2 21.8 55 6.7 SSW 6 13 3 7 1006.9 1006.8 0.0
21/03:00pm 31.7 34.8 21.5 54 6.9 SW 7 13 4 7 1007.1 1007.0 0.0
21/02:30pm 31.2 34.1 21.1 55 6.8 SW 7 15 4 8 1007.4 1007.3 0.0
21/02:00pm 31.2 34.4 21.7 57 6.4 S 7 15 4 8 1007.8 1007.7 0.0
21/01:30pm 31.2 34.1 21.7 57 6.4 SW 9 20 5 11 1008.2 1008.1 0.0
21/01:00pm 30.8 33.1 21.3 57 6.4 SSW 11 19 6 10 1008.7 1008.6 0.0
21/12:30pm 30.3 32.2 20.5 55 6.5 SW 11 28 6 15 1008.9 1008.8 0.0
21/12:00pm 30.6 33.3 21.4 58 6.2 SSW 9 19 5 10 1009.3 1009.2 0.0
21/11:30am 29.7 31.6 21.4 61 5.6 SSW 13 20 7 11 1009.7 1009.6 0.0
21/11:00am 29.0 31.2 20.4 59 5.7 SSW 9 17 5 9 1009.9 1009.8 0.0
21/10:30am 28.9 31.0 20.9 62 5.3 SW 11 17 6 9 1010.0 1009.9 0.0
21/10:00am 28.1 30.1 19.9 61 5.4 SSW 9 17 5 9 1010.0 1009.9 0.0
21/09:30am 27.6 29.3 20.2 64 4.9 S 11 19 6 10 1010.1 1010.0 0.0
21/09:00am 26.8 27.9 19.7 65 4.6 SSW 13 26 7 14 1010.0 1009.9 0.0
21/08:30am 26.7 28.1 19.6 65 4.6 SSW 11 20 6 11 1010.1 1010.0 0.0
21/08:00am 26.0 27.7 19.4 67 4.3 SSW 9 17 5 9 1010.0 1009.9 0.0
21/07:30am 25.2 27.1 18.9 68 4.0 SSW 7 13 4 7 1009.7 1009.6 0.0
21/07:00am 24.2 26.1 18.6 71 3.5 SW 6 9 3 5 1009.2 1009.1 0.0
21/06:30am 24.0 25.3 18.4 71 3.5 SW 9 13 5 7 1008.7 1008.6 0.0
21/06:00am 23.4 25.4 18.7 75 3.0 SW 6 9 3 5 1008.5 1008.4 0.0
21/05:30am 23.7 26.4 18.6 73 3.2 SW 2 6 1 3 1008.0 1007.9 0.0
21/05:00am 24.3 26.4 18.0 68 4.0 SSW 4 9 2 5 1007.7 1007.6 0.0
21/04:30am 24.7 26.1 17.9 66 4.3 SSW 7 15 4 8 1007.3 1007.2 0.0
21/04:00am 24.1 26.6 19.0 73 3.2 WSW 4 7 2 4 1007.4 1007.3 0.0
21/03:30am 24.0 26.7 20.3 80 2.4 WSW 6 9 3 5 1007.3 1007.2 0.0
21/03:00am 23.7 27.5 21.0 85 1.8 W 2 4 1 2 1007.6 1007.5 0.0
21/02:30am 23.8 27.2 20.9 84 1.9 WNW 4 6 2 3 1007.9 1007.8 0.0
21/02:00am 23.9 27.4 20.4 81 2.3 WSW 2 4 1 2 1008.2 1008.1 0.0
21/01:30am 24.3 28.0 20.8 81 2.3 W 2 4 1 2 1008.4 1008.3 0.0
21/01:00am 25.0 28.2 20.5 76 2.9 WSW 4 6 2 3 1008.3 1008.2 0.0
21/12:30am 25.2 27.8 20.5 75 3.1 SW 7 11 4 6 1008.4 1008.3 0.0
21/12:00am 25.3 28.1 20.8 76 3.0 SW 7 11 4 6 1008.6 1008.5 0.0
 
Date/Time
CST
Temp
°C
App
Temp
°C
Dew
Point
°C
Rel
Hum
%
Delta-T
°C
Wind Press
QNH
hPa
Press
MSL
hPa
Rain since
9am
mm
Dir  Spd
km/h
Gust
km/h
Spd
kts
Gust
kts
20/11:30pm 24.6 27.9 21.5 83 2.1 SW 6 7 3 4 1009.0 1008.9 0.0
20/11:00pm 25.0 28.5 22.1 84 1.9 WSW 7 9 4 5 1009.3 1009.2 0.0
20/10:30pm 24.8 28.9 23.0 90 1.2 W 6 9 3 5 1009.6 1009.5 0.0
20/10:00pm 24.6 29.0 22.8 90 1.2 W 4 6 2 3 1009.7 1009.6 0.0
20/09:30pm 24.6 28.8 22.5 88 1.4 WNW 4 6 2 3 1009.2 1009.1 0.0
20/09:00pm 24.4 29.2 23.5 95 0.6 WSW 4 6 2 3 1009.1 1009.0 0.0
20/08:30pm 24.5 29.7 24.2 98 0.2 SW 4 4 2 2 1009.1 1009.0 0.0
20/08:00pm 24.8 30.6 23.9 95 0.6 CALM 0 0 0 0 1008.7 1008.6 0.0
20/07:30pm 25.3 31.0 23.7 91 1.1 CALM 0 0 0 0 1008.3 1008.2 0.0
20/07:00pm 26.3 31.8 23.4 84 2.0 CALM 0 0 0 0 1007.9 1007.8 0.0
20/06:30pm 27.0 31.2 21.7 73 3.5 SSW 2 4 1 2 1007.6 1007.5 0.0
20/06:00pm 27.4 30.3 20.7 67 4.4 S 6 6 3 3 1007.3 1007.2 0.0
20/05:30pm 27.3 29.1 20.4 66 4.5 S 11 20 6 11 1006.9 1006.8 0.0
20/05:00pm 28.0 28.9 20.0 61 5.2 S 15 24 8 13 1007.0 1006.9 0.0
20/04:30pm 28.3 29.2 20.1 61 5.4 S 15 26 8 14 1006.6 1006.5 0.0
20/04:00pm 28.3 30.7 20.8 63 5.0 SSW 9 17 5 9 1006.4 1006.3 0.0
20/03:30pm 28.1 31.2 21.4 67 4.5 SSW 7 15 4 8 1006.3 1006.2 0.0
20/03:00pm 27.9 30.6 21.4 67 4.3 SSW 9 19 5 10 1006.3 1006.2 0.0
20/02:30pm 27.4 29.0 20.7 67 4.4 SSE 13 22 7 12 1006.3 1006.2 0.0
20/02:00pm 28.3 32.1 22.8 72 3.7 S 7 13 4 7 1006.4 1006.3 0.0
20/01:30pm 26.9 31.0 23.2 80 2.5 SSW 7 13 4 7 1006.7 1006.6 0.0
20/01:00pm 26.0 29.4 22.7 82 2.2 SSE 9 20 5 11 1007.1 1007.0 0.0
20/12:30pm 28.9 31.2 21.4 64 5.0 S 11 20 6 11 1007.0 1006.9 0.0
20/12:00pm 28.8 30.7 21.3 64 5.0 SSE 13 28 7 15 1007.1 1007.0 0.0
20/11:30am 28.0 30.7 22.2 70 3.9 SSE 11 22 6 12 1007.2 1007.1 0.0
20/11:00am 28.0 30.0 21.5 67 4.3 S 13 22 7 12 1007.1 1007.0 0.0
20/10:30am 27.8 30.5 22.1 71 3.8 S 11 20 6 11 1007.5 1007.4 0.0
20/10:00am 27.4 30.0 22.6 75 3.3 S 13 19 7 10 1007.5 1007.4 0.0
20/09:30am 27.0 30.2 22.4 76 3.1 SW 9 15 5 8 1007.1 1007.0 0.0
20/09:00am 26.5 30.4 23.0 81 2.4 SW 7 13 4 7 1006.9 1006.8 5.4
20/08:30am 25.6 29.2 23.1 86 1.7 SW 9 15 5 8 1006.9 1006.8 5.4
20/08:00am 25.3 29.4 23.2 88 1.4 WSW 7 13 4 7 1006.8 1006.7 5.4
20/07:30am 25.0 28.9 22.9 88 1.4 WSW 7 13 4 7 1006.5 1006.4 5.4
20/07:00am 24.7 29.1 23.5 93 0.8 SW 6 9 3 5 1006.3 1006.2 5.4
20/06:30am 24.5 28.8 23.3 93 0.8 SW 6 7 3 4 1006.2 1006.1 5.4
20/06:00am 24.6 28.8 23.4 93 0.8 SW 7 11 4 6 1005.7 1005.6 5.4
20/05:30am 24.6 28.5 23.6 94 0.7 SW 9 15 5 8 1005.1 1005.0 5.4
20/05:00am 24.4 28.7 23.7 96 0.5 SW 7 13 4 7 1005.1 1005.0 5.4
20/04:30am 24.3 28.8 23.6 96 0.5 SW 6 11 3 6 1004.8 1004.7 5.4
20/04:00am 24.3 28.2 22.9 92 0.9 WSW 7 11 4 6 1005.0 1004.9 5.4
20/03:30am 24.3 27.8 22.2 88 1.4 WSW 7 13 4 7 1004.9 1004.8 5.4
20/03:00am 24.1 27.6 21.8 87 1.5 WSW 6 7 3 4 1005.4 1005.3 5.4
20/02:30am 24.4 28.0 21.3 83 2.0 SW 4 9 2 5 1006.2 1006.1 5.4
20/02:00am 24.9 28.5 21.2 80 2.4 SW 4 7 2 4 1006.6 1006.5 5.4
20/01:30am 25.4 28.3 21.1 77 2.8 S 7 13 4 7 1006.7 1006.6 5.4
20/01:00am 25.6 28.3 21.3 77 2.8 S 9 13 5 7 1006.8 1006.7 5.4
20/12:30am 25.6 28.7 21.5 78 2.7 S 7 11 4 6 1007.0 1006.9 5.4
20/12:00am 25.7 28.4 21.4 77 2.9 S 9 13 5 7 1007.6 1007.5 5.4
 
Date/Time
CST
Temp
°C
App
Temp
°C
Dew
Point
°C
Rel
Hum
%
Delta-T
°C
Wind Press
QNH
hPa
Press
MSL
hPa
Rain since
9am
mm
Dir  Spd
km/h
Gust
km/h
Spd
kts
Gust
kts
19/11:30pm 25.9 28.8 21.8 78 2.7 SSW 9 17 5 9 1007.7 1007.6 5.4
19/11:00pm 25.9 29.3 22.0 79 2.6 S 7 13 4 7 1007.7 1007.6 5.4
19/10:30pm 25.7 29.5 22.4 82 2.2 SSW 6 9 3 5 1007.7 1007.6 5.4
19/10:00pm 25.5 29.2 22.2 82 2.2 S 6 9 3 5 1007.7 1007.6 5.4
19/09:30pm 25.6 29.1 22.1 81 2.3 SSE 7 15 4 8 1007.5 1007.4 5.4
19/09:00pm 25.9 29.3 22.0 79 2.6 SSE 7 15 4 8 1007.4 1007.3 5.4
19/08:30pm 25.9 29.3 22.0 79 2.6 SSE 7 13 4 7 1007.1 1007.0 5.4
19/08:00pm 25.8 29.7 22.5 82 2.2 S 6 9 3 5 1006.8 1006.7 5.4
19/07:30pm 26.1 29.3 22.4 80 2.5 SSE 9 13 5 7 1006.4 1006.3 5.4
19/07:00pm 26.1 29.3 23.0 83 2.1 SE 11 20 6 11 1005.9 1005.8 5.4
19/06:30pm 26.1 29.0 23.2 84 2.0 SE 13 20 7 11 1005.4 1005.3 5.4
19/06:00pm 25.5 30.8 25.2 98 0.2 SSE 7 13 4 7 1004.9 1004.8 5.4
19/05:30pm 24.7 29.1 24.4 98 0.2 SSE 9 17 5 9 1004.8 1004.7 5.4
19/05:00pm 26.7 32.8 26.2 97 0.4 S 6 13 3 7 1004.3 1004.2 4.0
19/04:30pm 24.9 29.4 24.6 98 0.2 SSE 9 17 5 9 1004.2 1004.1 4.0
19/04:00pm 25.9 27.7 22.6 82 2.2 SSE 17 35 9 19 1004.3 1004.2 3.2
19/03:30pm 28.6 29.9 22.3 68 4.3 SSE 19 35 10 19 1003.5 1003.4 3.0
19/03:00pm 29.6 32.2 23.3 69 4.3 SSE 15 30 8 16 1003.6 1003.5 3.0
19/02:30pm 26.9 28.1 23.2 80 2.5 S 22 41 12 22 1004.0 1003.9 3.0
19/02:12pm 29.2 28.4 21.7 64 5.0 SSE 28 48 15 26 1003.8 1003.7 3.0
19/02:00pm 28.8 30.2 22.5 68 4.3 SSE 19 33 10 18 1003.9 1003.8 3.0
19/01:30pm 28.9 31.1 23.3 72 3.9 S 17 30 9 16 1004.1 1004.0 3.0

Other Formats:

Comma delimited format used in spreadsheet applications
http://www.bom.gov.au/fwo/IDD60801/IDD60801.94106.axf

JavaScript Object Notation format (JSON) in row-major order
http://www.bom.gov.au/fwo/IDD60801/IDD60801.94106.json